createdAt,value
2022-08-04T00:01:02.289Z,63.6
2022-08-04T00:11:02.155Z,64.3
2022-08-04T00:21:02.152Z,65.3
2022-08-04T00:31:02.190Z,65.3
2022-08-04T00:41:02.201Z,65.5
2022-08-04T00:51:02.218Z,66.5
2022-08-04T01:01:02.308Z,67.5
2022-08-04T01:11:02.251Z,69.4
2022-08-04T01:21:02.256Z,69.9
2022-08-04T01:31:02.261Z,70.2
2022-08-04T01:41:02.104Z,71.4
2022-08-04T01:51:02.304Z,72
2022-08-04T02:01:02.575Z,71.9
2022-08-04T02:11:02.358Z,72.1
2022-08-04T02:21:02.354Z,72.4
2022-08-04T02:31:02.349Z,72.3
2022-08-04T02:41:02.393Z,72.2
2022-08-04T02:51:02.414Z,72
2022-08-04T03:01:02.538Z,72.3
2022-08-04T03:11:02.247Z,72.9
2022-08-04T03:21:02.448Z,73.7
2022-08-04T03:31:02.464Z,73.8
2022-08-04T03:41:02.483Z,73.9
2022-08-04T03:51:02.307Z,74.1
2022-08-04T04:01:02.531Z,74.1
2022-08-04T04:11:02.512Z,74.3
2022-08-04T04:21:02.542Z,74
2022-08-04T04:41:02.566Z,66.8
2022-08-04T04:51:02.420Z,64.7
2022-08-04T05:01:02.595Z,62.9
2022-08-04T05:11:02.611Z,64.2
2022-08-04T05:21:02.459Z,64.9
2022-08-04T05:41:02.672Z,62.8
2022-08-04T05:51:02.677Z,58.8
2022-08-04T06:01:02.695Z,57.4
2022-08-04T06:11:02.695Z,56.8
2022-08-04T06:21:02.716Z,57.1
2022-08-04T06:32:27.131Z,57.1
2022-08-04T06:41:02.768Z,57.2
2022-08-04T06:51:27.653Z,57.6
2022-08-04T07:01:02.790Z,52.9
2022-08-04T07:21:02.795Z,53.3
2022-08-04T07:31:02.842Z,53.3
2022-08-04T07:41:02.921Z,51
2022-08-04T07:51:02.847Z,50.7
2022-08-04T08:01:02.866Z,47.4
2022-08-04T08:21:02.929Z,46.1
2022-08-04T08:31:02.903Z,44.8
2022-08-04T08:41:02.913Z,44.8
2022-08-04T08:51:02.940Z,43.3
2022-08-04T09:01:03.047Z,42.8
2022-08-04T09:11:02.956Z,41.9
2022-08-04T09:21:02.987Z,42
2022-08-04T09:31:03.018Z,38.6
2022-08-04T09:41:02.995Z,37.6
2022-08-04T09:51:03.029Z,39.4
2022-08-04T10:01:03.030Z,37.1
2022-08-04T10:11:03.050Z,34.6
2022-08-04T10:21:09.121Z,35.1
2022-08-04T10:31:03.106Z,36.2
2022-08-04T10:41:03.113Z,35.7
2022-08-04T10:51:03.132Z,35.3
2022-08-04T11:01:03.150Z,36.2
2022-08-04T11:11:02.980Z,36.2
2022-08-04T11:21:03.002Z,36.5
2022-08-04T11:31:03.188Z,35.1
2022-08-04T11:41:03.448Z,34.8
2022-08-04T12:01:03.254Z,32.1
2022-08-04T12:11:03.256Z,32.9
2022-08-04T12:41:03.308Z,38.4
2022-08-04T13:21:08.237Z,43
2022-08-04T14:01:03.507Z,40.5
2022-08-04T14:11:03.449Z,41
2022-08-04T14:21:03.456Z,38.9
2022-08-04T14:31:03.311Z,39.1
2022-08-04T14:41:03.488Z,38.3
2022-08-04T14:51:03.489Z,37.7
2022-08-04T15:01:03.528Z,37.1
2022-08-04T15:21:03.628Z,40.6
2022-08-04T15:31:03.562Z,42.5
2022-08-04T15:41:03.594Z,43.7
2022-08-04T15:51:03.608Z,45
2022-08-04T16:01:03.608Z,44.9
2022-08-04T16:11:03.620Z,44.9
2022-08-04T16:31:03.648Z,47.1
2022-08-04T16:41:03.667Z,47.5
2022-08-04T16:51:05.533Z,56.2
2022-08-04T17:01:03.709Z,59.8
2022-08-04T17:11:03.719Z,61.5
2022-08-04T17:21:03.548Z,61.8
2022-08-04T17:31:04.325Z,62.1
2022-08-04T17:41:19.487Z,63.7
2022-08-04T17:51:03.787Z,64.4
2022-08-04T18:01:24.275Z,64.6
2022-08-04T18:11:03.794Z,64.5
2022-08-04T18:21:04.894Z,63.5
2022-08-04T18:31:03.823Z,64.1
2022-08-04T18:41:03.891Z,64.3
2022-08-04T18:51:11.028Z,65.4
2022-08-04T19:21:05.124Z,66.9
2022-08-04T19:31:03.741Z,66.2
2022-08-04T19:41:04.151Z,66.3
2022-08-04T19:51:03.955Z,67.2
2022-08-04T20:01:03.979Z,67.6
2022-08-04T20:21:03.996Z,69.4
2022-08-04T20:41:04.035Z,70.2
2022-08-04T20:51:04.056Z,71.4
2022-08-04T21:01:04.134Z,71.7
2022-08-04T21:11:04.138Z,72
2022-08-04T21:21:04.098Z,72.6
2022-08-04T21:41:04.115Z,73.1
2022-08-04T21:51:10.667Z,72.6
2022-08-04T22:01:05.840Z,72.2
2022-08-04T22:11:04.167Z,72.3
2022-08-04T22:21:04.163Z,72.5
2022-08-04T22:31:23.984Z,73.2
2022-08-04T22:41:04.197Z,74
2022-08-04T22:51:04.202Z,74.7
2022-08-04T23:01:04.482Z,75.4
2022-08-04T23:11:04.243Z,75.3
2022-08-04T23:21:04.264Z,76.5
2022-08-04T23:31:04.100Z,77
2022-08-04T23:41:04.354Z,78.6
2022-08-04T23:51:04.301Z,79.5
